Time;durP1;ratioP1;P1;durP2;ratioP2;P2;SDS_P1;SDS_P2;PMS_P1;PMS_P2;Temp;Humidity;BMP_temperature;BMP_pressure;BME280_temperature;BME280_humidity;BME280_pressure;Samples;Min_cycle;Max_cycle;Signal;HPM_P1;HPM_P2
2023/01/14 00:00:38;;;;;;;13.65;4.55;;;7.60;99.90;;;;;;5053897;28;20037;-62
2023/01/14 00:03:04;;;;;;;16.40;5.15;;;7.60;99.90;;;;;;5054363;28;20052;-62
2023/01/14 00:05:30;;;;;;;19.02;4.10;;;7.50;99.90;;;;;;5052299;28;20053;-63
2023/01/14 00:07:55;;;;;;;15.40;3.70;;;7.50;99.90;;;;;;5052413;28;20060;-63
2023/01/14 00:10:21;;;;;;;15.88;4.30;;;7.40;99.90;;;;;;5054438;28;20090;-63
2023/01/14 00:12:50;;;;;;;15.05;3.65;;;7.40;99.90;;;;;;5051226;28;20123;-63
2023/01/14 00:15:16;;;;;;;26.50;4.63;;;7.40;99.90;;;;;;5054118;28;20114;-63
2023/01/14 00:17:42;;;;;;;12.20;3.95;;;7.40;99.90;;;;;;5052456;28;20160;-63
2023/01/14 00:20:09;;;;;;;14.30;4.95;;;7.30;99.90;;;;;;5052047;28;20553;-63
2023/01/14 00:22:34;;;;;;;26.60;5.00;;;7.30;99.90;;;;;;5052916;28;20045;-63
2023/01/14 00:25:00;;;;;;;13.68;3.88;;;7.30;99.90;;;;;;5035604;28;20132;-63
2023/01/14 00:27:26;;;;;;;17.17;3.17;;;7.30;99.90;;;;;;5053080;28;20055;-63
2023/01/14 00:29:51;;;;;;;13.82;3.95;;;7.40;99.90;;;;;;5052011;28;20476;-62
2023/01/14 00:32:17;;;;;;;18.35;4.13;;;7.40;99.90;;;;;;5052866;28;20493;-63
2023/01/14 00:34:42;;;;;;;15.75;4.15;;;7.40;99.90;;;;;;5052308;28;20072;-63
2023/01/14 00:37:08;;;;;;;17.63;4.30;;;7.40;99.90;;;;;;5052781;28;20106;-62
2023/01/14 00:39:34;;;;;;;10.30;3.45;;;7.50;99.90;;;;;;5053431;28;20500;-63
2023/01/14 00:41:59;;;;;;;14.20;3.60;;;7.50;99.90;;;;;;5052565;28;20048;-63
2023/01/14 00:44:25;;;;;;;19.05;4.40;;;7.50;99.90;;;;;;5035736;28;20040;-63
2023/01/14 00:46:52;;;;;;;17.95;4.80;;;7.50;99.90;;;;;;5051769;28;20114;-62
2023/01/14 00:49:20;;;;;;;14.57;3.63;;;7.50;99.90;;;;;;5052901;28;20124;-62
2023/01/14 00:51:47;;;;;;;16.42;4.55;;;7.60;99.90;;;;;;5053124;28;20041;-63
2023/01/14 00:54:14;;;;;;;18.08;4.95;;;7.60;99.90;;;;;;5052145;28;20041;-63
2023/01/14 00:56:40;;;;;;;13.35;3.60;;;7.60;99.90;;;;;;5034061;28;20124;-63
2023/01/14 00:59:06;;;;;;;17.35;3.90;;;7.60;99.90;;;;;;5052044;28;20314;-62
2023/01/14 01:01:32;;;;;;;13.20;3.53;;;7.60;99.90;;;;;;5051578;28;20493;-63
2023/01/14 01:03:58;;;;;;;10.52;3.03;;;7.60;99.90;;;;;;5053136;28;20041;-62
2023/01/14 01:06:27;;;;;;;18.83;4.57;;;7.70;99.90;;;;;;5053051;28;20047;-63
2023/01/14 01:09:00;;;;;;;18.08;4.45;;;7.70;99.90;;;;;;5051877;28;20079;-62
2023/01/14 01:11:27;;;;;;;16.60;4.30;;;7.70;99.90;;;;;;5051748;28;20080;-63
2023/01/14 01:13:54;;;;;;;21.45;4.50;;;7.70;99.90;;;;;;5051094;28;20056;-63
2023/01/14 01:16:23;;;;;;;12.88;3.92;;;7.70;99.90;;;;;;5051098;28;20116;-62
2023/01/14 01:18:50;;;;;;;20.20;4.25;;;7.70;99.90;;;;;;5051427;28;20067;-62
2023/01/14 01:21:17;;;;;;;21.10;4.22;;;7.70;99.90;;;;;;5052959;28;20045;-62
2023/01/14 01:23:44;;;;;;;12.65;4.28;;;7.70;99.90;;;;;;5050180;28;20103;-63
2023/01/14 01:26:21;;;;;;;18.85;4.28;;;7.70;99.90;;;;;;5052665;28;20056;-62
2023/01/14 01:28:50;;;;;;;15.77;4.75;;;7.70;99.90;;;;;;5050926;28;20045;-63
2023/01/14 01:31:16;;;;;;;22.05;4.32;;;7.70;99.90;;;;;;5034151;28;20115;-63
2023/01/14 01:33:41;;;;;;;18.02;5.30;;;7.70;99.90;;;;;;5034005;28;20045;-63
2023/01/14 01:36:13;;;;;;;20.58;4.47;;;7.70;99.90;;;;;;5052698;28;20040;-62
2023/01/14 01:38:39;;;;;;;19.33;4.45;;;7.70;99.90;;;;;;5049980;28;20135;-62
2023/01/14 01:41:05;;;;;;;17.70;4.68;;;7.70;99.90;;;;;;5034572;28;20502;-62
2023/01/14 01:43:32;;;;;;;23.63;5.00;;;7.70;99.90;;;;;;5051062;28;20072;-62
2023/01/14 01:46:01;;;;;;;18.10;4.28;;;7.70;99.90;;;;;;5050895;28;20047;-63
2023/01/14 01:48:39;;;;;;;22.80;6.00;;;7.70;99.90;;;;;;5051072;28;20037;-63
2023/01/14 01:51:19;;;;;;;16.80;4.10;;;7.70;99.90;;;;;;5050425;28;20063;-62
2023/01/14 01:53:48;;;;;;;17.27;4.03;;;7.60;99.90;;;;;;5051787;28;20052;-62
2023/01/14 01:56:24;;;;;;;22.00;4.13;;;7.70;99.90;;;;;;5034529;28;20045;-62
2023/01/14 01:58:52;;;;;;;17.73;5.00;;;7.70;99.90;;;;;;5050950;28;20084;-62
2023/01/14 02:01:18;;;;;;;15.50;4.70;;;7.70;99.90;;;;;;5051100;28;20045;-62
2023/01/14 02:03:47;;;;;;;21.45;5.72;;;7.60;99.90;;;;;;5033737;28;20049;-62
2023/01/14 02:06:14;;;;;;;19.17;4.78;;;7.60;99.90;;;;;;5051458;28;20509;-63
2023/01/14 02:08:45;;;;;;;17.77;5.60;;;7.60;99.90;;;;;;5050231;28;20120;-62
2023/01/14 02:11:47;;;;;;;18.30;5.43;;;7.60;99.90;;;;;;5050954;28;20044;-62
2023/01/14 02:15:00;;;;;;;18.85;4.80;;;7.60;99.90;;;;;;5034301;28;20041;-62
2023/01/14 02:17:32;;;;;;;17.27;5.20;;;7.50;99.90;;;;;;5010509;28;20149;-61
2023/01/14 02:20:01;;;;;;;22.10;4.50;;;7.50;99.90;;;;;;5045247;28;20435;-61
2023/01/14 02:22:57;;;;;;;19.05;4.47;;;7.50;99.90;;;;;;5050661;28;20044;-62
2023/01/14 02:25:53;;;;;;;15.63;4.05;;;7.50;99.90;;;;;;5050783;28;20497;-61
2023/01/14 02:28:52;;;;;;;15.93;4.05;;;7.50;99.90;;;;;;5052023;28;20398;-61
2023/01/14 02:31:28;;;;;;;18.85;4.88;;;7.50;99.90;;;;;;5031413;28;20401;-61
2023/01/14 02:34:03;;;;;;;17.45;5.38;;;7.40;99.90;;;;;;5049597;28;20045;-62
2023/01/14 02:36:50;;;;;;;19.35;4.47;;;7.40;99.90;;;;;;5051947;28;20041;-61
2023/01/14 02:39:36;;;;;;;20.45;4.55;;;7.40;99.90;;;;;;5050862;28;20075;-61
2023/01/14 02:45:05;;;;;;;18.17;5.00;;;7.20;99.90;;;;;;5051683;28;20049;-62
2023/01/14 02:47:33;;;;;;;20.30;5.60;;;7.20;99.90;;;;;;5053739;28;20040;-62
2023/01/14 02:50:00;;;;;;;17.15;3.90;;;7.20;99.90;;;;;;5054255;28;20098;-62
2023/01/14 02:52:27;;;;;;;15.77;5.18;;;7.20;99.90;;;;;;5054350;28;20132;-61
2023/01/14 02:54:57;;;;;;;14.45;4.05;;;7.10;99.90;;;;;;5036883;28;20480;-61
2023/01/14 02:57:41;;;;;;;18.10;4.35;;;7.20;99.90;;;;;;5055730;28;20033;-61
2023/01/14 03:00:38;;;;;;;12.95;3.70;;;7.10;99.90;;;;;;5055465;28;20120;-62
2023/01/14 03:03:22;;;;;;;16.63;3.75;;;7.10;99.90;;;;;;5053510;28;20155;-61
2023/01/14 03:06:00;;;;;;;16.10;3.90;;;7.00;99.90;;;;;;5053788;28;20041;-61
2023/01/14 03:08:51;;;;;;;23.30;4.38;;;7.00;99.90;;;;;;5053250;28;20060;-61
2023/01/14 03:11:17;;;;;;;13.95;4.57;;;6.90;99.90;;;;;;5055513;28;20112;-61
2023/01/14 03:13:54;;;;;;;15.05;4.85;;;6.90;99.90;;;;;;5036906;28;20461;-61
2023/01/14 03:16:20;;;;;;;23.10;4.60;;;6.90;99.90;;;;;;5053529;28;20127;-61
2023/01/14 03:19:12;;;;;;;15.88;4.18;;;6.90;99.90;;;;;;5053433;28;20088;-61
2023/01/14 03:21:42;;;;;;;25.70;4.53;;;6.80;99.90;;;;;;5054982;28;20044;-62
2023/01/14 03:24:18;;;;;;;19.65;5.13;;;6.80;99.90;;;;;;5054334;28;20059;-61
2023/01/14 03:26:47;;;;;;;23.08;4.47;;;6.70;99.90;;;;;;5053290;28;20048;-61
2023/01/14 03:29:22;;;;;;;17.25;4.45;;;6.70;99.90;;;;;;5036265;28;20090;-61
2023/01/14 03:31:52;;;;;;;;;;;6.60;99.90;;;;;;5055103;28;20033;-61
2023/01/14 03:34:24;;;;;;;18.00;4.18;;;6.60;99.90;;;;;;5053933;28;19917;-62
2023/01/14 03:36:51;;;;;;;16.42;3.88;;;6.50;99.90;;;;;;5053520;28;20112;-61
2023/01/14 03:39:23;;;;;;;18.65;4.40;;;6.50;99.90;;;;;;5036936;28;20049;-61
2023/01/14 03:44:52;;;;;;;18.75;5.07;;;6.40;99.90;;;;;;5053827;28;20049;-62
2023/01/14 03:47:19;;;;;;;20.02;4.65;;;6.40;99.90;;;;;;5037140;28;20367;-61
2023/01/14 03:49:45;;;;;;;21.25;4.50;;;6.40;99.90;;;;;;5053859;28;20045;-61
2023/01/14 03:52:28;;;;;;;17.67;5.03;;;6.30;99.90;;;;;;5053736;28;20096;-61
2023/01/14 03:55:06;;;;;;;14.63;4.63;;;6.30;99.90;;;;;;5053217;28;20040;-61
2023/01/14 03:58:03;;;;;;;14.98;4.13;;;6.30;99.90;;;;;;5052530;28;20056;-61
2023/01/14 04:00:40;;;;;;;22.95;3.75;;;6.30;99.90;;;;;;5054426;28;20443;-61
2023/01/14 04:03:09;;;;;;;16.80;4.20;;;6.30;99.90;;;;;;5054596;28;20075;-61
2023/01/14 04:05:36;;;;;;;23.10;4.35;;;6.30;99.90;;;;;;5053160;28;20498;-61
2023/01/14 04:08:04;;;;;;;21.75;4.30;;;6.30;99.90;;;;;;5052840;28;20037;-61
2023/01/14 04:10:30;;;;;;;16.00;4.57;;;6.30;99.90;;;;;;5054329;28;20116;-61
2023/01/14 04:15:40;;;;;;;20.92;4.30;;;6.30;99.90;;;;;;5052635;28;20373;-61
2023/01/14 04:18:05;;;;;;;14.20;4.05;;;6.20;99.90;;;;;;5052962;28;20191;-61
2023/01/14 04:20:31;;;;;;;14.63;3.80;;;6.20;99.90;;;;;;5051970;28;20037;-62
2023/01/14 04:22:57;;;;;;;13.02;3.80;;;6.30;99.90;;;;;;5052334;28;20476;-61
2023/01/14 04:25:23;;;;;;;22.95;4.13;;;6.30;99.90;;;;;;5051642;28;20063;-61
2023/01/14 04:27:49;;;;;;;16.63;3.92;;;6.20;99.90;;;;;;5052040;28;20041;-62
2023/01/14 04:30:15;;;;;;;16.48;4.85;;;6.20;99.90;;;;;;5052658;28;20041;-62
2023/01/14 04:32:40;;;;;;;20.40;3.58;;;6.20;99.90;;;;;;5051415;28;20370;-62
2023/01/14 04:35:07;;;;;;;14.85;4.57;;;6.20;99.90;;;;;;5052359;28;20041;-62
2023/01/14 04:37:32;;;;;;;21.35;4.75;;;6.20;99.90;;;;;;5052665;28;20047;-62
2023/01/14 04:39:58;;;;;;;15.40;4.72;;;6.20;99.90;;;;;;5051467;28;20517;-62
2023/01/14 04:42:26;;;;;;;12.60;4.10;;;6.20;99.90;;;;;;5052384;28;20064;-61
2023/01/14 04:44:53;;;;;;;21.73;4.20;;;6.20;99.90;;;;;;5051838;28;20053;-62
2023/01/14 04:47:19;;;;;;;18.45;4.32;;;6.20;99.90;;;;;;5051751;28;20052;-62
2023/01/14 04:49:45;;;;;;;17.75;4.22;;;6.20;99.90;;;;;;5034832;28;20394;-61
2023/01/14 04:52:10;;;;;;;11.98;3.42;;;6.20;99.90;;;;;;5053476;28;20070;-62
2023/01/14 04:54:36;;;;;;;17.70;4.50;;;6.20;99.90;;;;;;5051037;28;20052;-62
2023/01/14 04:57:02;;;;;;;20.80;5.20;;;6.20;99.90;;;;;;5053252;28;20033;-62
2023/01/14 04:59:27;;;;;;;13.32;4.32;;;6.20;99.90;;;;;;5053469;28;20090;-62
2023/01/14 05:01:53;;;;;;;13.45;3.67;;;6.20;99.90;;;;;;5052028;28;20041;-62
2023/01/14 05:04:19;;;;;;;17.85;4.28;;;6.20;99.90;;;;;;5051816;28;20041;-62
2023/01/14 05:06:44;;;;;;;21.63;5.07;;;6.20;99.90;;;;;;5051235;28;20052;-62
2023/01/14 05:09:10;;;;;;;13.40;3.72;;;6.10;99.90;;;;;;5050876;28;20124;-62
2023/01/14 05:11:36;;;;;;;15.15;3.78;;;6.10;99.90;;;;;;5051581;28;20120;-62
2023/01/14 05:14:01;;;;;;;13.60;3.88;;;6.10;99.90;;;;;;5052876;28;20045;-62
2023/01/14 05:16:27;;;;;;;19.27;4.40;;;6.00;99.90;;;;;;5052195;28;20393;-62
2023/01/14 05:18:53;;;;;;;14.95;3.70;;;6.00;99.90;;;;;;5051157;28;20057;-62
2023/01/14 05:21:19;;;;;;;13.95;3.30;;;6.00;99.90;;;;;;5034990;28;20478;-62
2023/01/14 05:23:45;;;;;;;13.48;3.58;;;6.00;99.90;;;;;;5051431;28;20052;-62
2023/01/14 05:26:11;;;;;;;11.35;3.45;;;5.90;99.90;;;;;;5051534;28;20049;-62
2023/01/14 05:28:36;;;;;;;17.17;4.03;;;5.90;99.90;;;;;;5050554;28;20124;-61
2023/01/14 05:31:04;;;;;;;14.15;3.83;;;5.80;99.90;;;;;;5034802;28;20040;-62
2023/01/14 05:33:30;;;;;;;14.45;4.32;;;5.90;99.90;;;;;;5052698;28;20397;-62
2023/01/14 05:35:57;;;;;;;13.25;3.78;;;5.80;99.90;;;;;;5050127;28;20152;-62
2023/01/14 05:38:23;;;;;;;17.63;4.65;;;5.80;99.90;;;;;;5051634;28;20049;-62
2023/01/14 05:40:52;;;;;;;18.63;3.67;;;5.80;99.90;;;;;;5051974;28;20041;-62
2023/01/14 05:46:10;;;;;;;21.43;4.37;;;5.80;99.90;;;;;;5051257;28;20114;-62
2023/01/14 05:48:36;;;;;;;14.93;3.97;;;5.80;99.90;;;;;;5034288;28;20120;-62
2023/01/14 05:51:03;;;;;;;19.98;4.47;;;5.80;99.90;;;;;;5051299;28;20112;-62
2023/01/14 05:53:29;;;;;;;16.85;3.92;;;5.80;99.90;;;;;;5051217;28;20037;-61
2023/01/14 05:55:56;;;;;;;14.45;3.80;;;5.80;99.90;;;;;;5050597;28;20044;-61
2023/01/14 05:58:22;;;;;;;17.75;4.35;;;5.80;99.90;;;;;;5050579;28;20045;-62
2023/01/14 06:06:21;;;;;;;15.73;4.80;;;5.80;99.90;;;;;;5052408;28;20055;-61
2023/01/14 06:08:51;;;;;;;15.57;5.00;;;5.80;99.90;;;;;;5051773;28;20040;-62
2023/01/14 06:11:19;;;;;;;14.90;3.88;;;5.90;99.90;;;;;;5050388;28;20136;-62
2023/01/14 06:13:46;;;;;;;19.65;6.00;;;5.90;99.90;;;;;;5050329;28;20037;-62
2023/01/14 06:16:11;;;;;;;13.02;4.72;;;5.90;99.90;;;;;;5050658;28;20045;-62
2023/01/14 06:18:39;;;;;;;19.92;4.25;;;5.90;99.90;;;;;;5051281;28;20075;-62
2023/01/14 06:21:08;;;;;;;21.73;4.47;;;5.90;99.90;;;;;;5054792;28;20040;-62
2023/01/14 06:23:34;;;;;;;13.68;4.72;;;5.90;99.90;;;;;;5054952;28;20152;-62
2023/01/14 06:26:00;;;;;;;21.20;5.63;;;5.90;99.90;;;;;;5055106;28;20507;-62
2023/01/14 06:28:27;;;;;;;18.25;5.03;;;6.00;99.90;;;;;;5055912;28;20128;-62
2023/01/14 06:30:53;;;;;;;19.13;5.68;;;6.00;99.90;;;;;;5054222;28;20048;-61
2023/01/14 06:33:19;;;;;;;16.98;4.97;;;6.00;99.90;;;;;;5054033;28;20048;-62
2023/01/14 06:35:45;;;;;;;13.70;4.55;;;6.00;99.90;;;;;;5055510;28;20033;-62
2023/01/14 06:38:12;;;;;;;26.73;5.82;;;6.00;99.90;;;;;;5054682;28;20474;-62
2023/01/14 06:40:38;;;;;;;23.30;5.03;;;6.00;99.90;;;;;;5053660;28;20123;-62
2023/01/14 06:43:05;;;;;;;16.88;4.43;;;6.00;99.90;;;;;;5055802;28;20126;-62
2023/01/14 06:45:31;;;;;;;20.83;6.40;;;6.00;99.90;;;;;;5056001;28;20068;-62
2023/01/14 06:47:57;;;;;;;22.50;5.18;;;6.00;99.90;;;;;;5053049;28;20379;-64
2023/01/14 06:50:22;;;;;;;25.75;5.60;;;6.00;99.90;;;;;;5054463;28;20047;-64
2023/01/14 06:52:52;;;;;;;14.85;4.90;;;6.00;99.90;;;;;;5037242;28;20069;-64
2023/01/14 06:55:21;;;;;;;21.38;5.45;;;6.00;99.90;;;;;;5053620;28;20033;-64
2023/01/14 06:57:47;;;;;;;17.25;5.57;;;6.00;99.90;;;;;;5053620;28;20041;-64
2023/01/14 07:00:14;;;;;;;20.58;5.65;;;6.00;99.90;;;;;;5054811;28;20036;-64
2023/01/14 07:02:39;;;;;;;25.63;6.57;;;6.00;99.90;;;;;;5055039;28;20048;-64
2023/01/14 07:05:06;;;;;;;19.77;6.40;;;6.00;99.90;;;;;;5055511;28;20037;-64
2023/01/14 07:07:32;;;;;;;19.75;6.10;;;6.00;99.90;;;;;;5053773;28;20429;-64
2023/01/14 07:09:58;;;;;;;19.08;6.15;;;6.00;99.90;;;;;;5054772;28;20033;-64
2023/01/14 07:12:23;;;;;;;22.25;6.80;;;6.00;99.90;;;;;;5055560;28;20033;-64
2023/01/14 07:14:49;;;;;;;22.77;8.00;;;6.10;99.90;;;;;;5054065;28;20040;-64
2023/01/14 07:17:15;;;;;;;17.90;7.00;;;6.10;99.90;;;;;;5055513;28;20398;-64
2023/01/14 07:19:40;;;;;;;24.75;7.30;;;6.10;99.90;;;;;;5054542;28;20079;-64
2023/01/14 07:22:06;;;;;;;18.48;6.38;;;6.10;99.90;;;;;;5036863;28;20049;-64
2023/01/14 07:24:32;;;;;;;29.73;7.07;;;6.10;99.90;;;;;;5054768;28;20525;-64
2023/01/14 07:26:58;;;;;;;24.42;8.27;;;6.10;99.90;;;;;;5053576;28;20512;-64
2023/01/14 07:29:23;;;;;;;25.98;7.55;;;6.20;99.90;;;;;;5053052;28;20045;-64
2023/01/14 07:31:51;;;;;;;26.92;9.88;;;6.20;99.90;;;;;;5052745;28;20074;-65
2023/01/14 07:34:16;;;;;;;20.15;6.50;;;6.10;99.90;;;;;;5053650;28;20045;-64
2023/01/14 07:36:42;;;;;;;28.10;8.38;;;6.20;99.90;;;;;;5053590;28;20056;-65
2023/01/14 07:39:09;;;;;;;19.20;7.07;;;6.20;99.90;;;;;;5053541;28;20045;-64
2023/01/14 07:41:34;;;;;;;26.23;7.13;;;6.20;99.90;;;;;;5053199;28;20051;-64
2023/01/14 07:44:02;;;;;;;19.73;6.10;;;6.20;99.90;;;;;;5052223;28;20041;-64
2023/01/14 07:46:28;;;;;;;27.70;7.35;;;6.30;99.90;;;;;;5053442;28;20056;-64
2023/01/14 07:48:53;;;;;;;21.13;6.47;;;6.30;99.90;;;;;;5054057;28;20045;-64
2023/01/14 07:51:20;;;;;;;30.83;7.47;;;6.30;99.90;;;;;;5053812;28;20048;-64
2023/01/14 07:53:47;;;;;;;19.10;7.10;;;6.30;99.90;;;;;;5052569;28;20052;-64
2023/01/14 07:56:13;;;;;;;26.02;7.05;;;6.30;99.90;;;;;;5054557;28;20120;-64
2023/01/14 07:58:39;;;;;;;25.55;7.57;;;6.30;99.90;;;;;;5051872;28;20116;-64
2023/01/14 08:01:06;;;;;;;23.15;8.80;;;6.30;99.90;;;;;;5053163;28;20440;-64
2023/01/14 08:03:32;;;;;;;27.13;8.57;;;6.30;99.90;;;;;;5051624;28;20048;-65
2023/01/14 08:06:04;;;;;;;25.95;7.70;;;6.30;99.90;;;;;;5050932;28;20401;-64
2023/01/14 08:08:30;;;;;;;28.95;7.40;;;6.30;99.90;;;;;;5050209;28;20402;-64
2023/01/14 08:10:59;;;;;;;25.42;7.30;;;6.30;99.90;;;;;;5048857;28;20052;-65
2023/01/14 08:13:27;;;;;;;28.25;8.05;;;6.30;99.90;;;;;;5048014;28;20037;-65
2023/01/14 08:15:58;;;;;;;19.50;7.53;;;6.30;99.90;;;;;;5049643;28;20888;-65
2023/01/14 08:18:24;;;;;;;25.55;6.30;;;6.30;99.90;;;;;;5049328;28;20053;-65
2023/01/14 08:21:02;;;;;;;22.60;6.47;;;6.30;99.90;;;;;;5049359;28;20041;-65
2023/01/14 08:23:29;;;;;;;19.48;7.00;;;6.30;99.90;;;;;;5051597;28;20040;-63
2023/01/14 08:26:03;;;;;;;27.52;7.00;;;6.30;99.90;;;;;;5030415;28;20044;-63
2023/01/14 08:28:28;;;;;;;20.25;5.85;;;6.30;99.90;;;;;;5050628;28;20083;-62
2023/01/14 08:31:12;;;;;;;20.50;6.40;;;6.30;99.90;;;;;;5049571;28;20490;-62
2023/01/14 08:33:39;;;;;;;18.27;6.05;;;6.30;99.90;;;;;;5049391;28;20041;-62
2023/01/14 08:36:08;;;;;;;23.48;6.78;;;6.30;99.90;;;;;;5050670;28;20059;-62
2023/01/14 08:38:38;;;;;;;23.70;6.60;;;6.30;99.90;;;;;;5043144;28;20044;-62
2023/01/14 08:41:10;;;;;;;25.17;6.82;;;6.30;99.90;;;;;;5050662;28;20433;-62
2023/01/14 08:43:36;;;;;;;17.67;5.15;;;6.30;99.90;;;;;;5048417;28;20529;-62
2023/01/14 08:46:04;;;;;;;22.27;5.72;;;6.30;99.90;;;;;;5032314;28;20037;-62
2023/01/14 08:48:30;;;;;;;26.02;5.95;;;6.30;99.90;;;;;;5049440;28;20049;-62
2023/01/14 08:51:04;;;;;;;17.58;4.85;;;6.30;99.90;;;;;;5049325;28;20083;-61
2023/01/14 08:53:31;;;;;;;20.75;5.32;;;6.30;99.90;;;;;;5049101;28;20124;-61
2023/01/14 08:55:58;;;;;;;17.77;6.55;;;6.30;99.90;;;;;;5050516;28;20457;-61
2023/01/14 08:58:25;;;;;;;25.48;6.47;;;6.30;99.90;;;;;;5050430;28;20116;-62
2023/01/14 09:00:56;;;;;;;22.02;6.18;;;6.30;99.90;;;;;;5048633;28;20524;-61
2023/01/14 09:03:22;;;;;;;18.55;5.15;;;6.30;99.90;;;;;;5050335;28;20049;-61
2023/01/14 09:05:48;;;;;;;15.93;4.55;;;6.30;99.90;;;;;;5050188;28;20044;-61
2023/01/14 09:19:13;;;;;;;22.27;6.25;;;6.30;99.90;;;;;;5048714;28;20076;-60
2023/01/14 09:21:39;;;;;;;21.60;5.40;;;6.30;99.90;;;;;;5047930;28;20157;-61
2023/01/14 09:24:05;;;;;;;18.67;4.45;;;6.30;99.90;;;;;;5049053;28;20060;-60
2023/01/14 09:26:31;;;;;;;14.23;4.03;;;6.20;99.90;;;;;;5032498;28;20044;-60
2023/01/14 09:28:57;;;;;;;12.10;4.57;;;6.30;99.90;;;;;;5044913;28;20049;-60
2023/01/14 09:31:23;;;;;;;14.70;4.07;;;6.30;99.90;;;;;;5032190;28;20045;-60
2023/01/14 09:33:49;;;;;;;14.82;4.15;;;6.30;99.90;;;;;;5045726;28;20095;-60
2023/01/14 09:36:15;;;;;;;16.70;4.50;;;6.30;99.90;;;;;;5045032;28;20032;-60
2023/01/14 09:38:40;;;;;;;16.15;5.15;;;6.30;99.90;;;;;;5046620;28;20128;-60
2023/01/14 09:41:16;;;;;;;15.52;5.20;;;6.30;99.90;;;;;;5048559;28;20091;-60
2023/01/14 09:43:42;;;;;;;14.15;4.03;;;6.30;99.90;;;;;;5044827;28;20037;-60
2023/01/14 09:46:10;;;;;;;12.30;4.53;;;6.30;99.90;;;;;;5064455;28;20060;-60
2023/01/14 09:48:36;;;;;;;12.73;3.72;;;6.30;99.90;;;;;;5031300;28;20041;-60
2023/01/14 09:51:34;;;;;;;15.10;3.80;;;6.30;99.90;;;;;;5048593;28;20045;-61
2023/01/14 09:54:15;;;;;;;16.95;4.75;;;6.40;99.90;;;;;;5041357;28;20041;-60
2023/01/14 09:56:59;;;;;;;12.13;2.92;;;6.30;99.90;;;;;;5047785;28;20044;-61
2023/01/14 09:59:31;;;;;;;12.85;3.22;;;6.40;99.90;;;;;;5047712;28;20052;-60
2023/01/14 10:02:00;;;;;;;9.10;2.72;;;6.40;99.90;;;;;;5049116;28;20085;-60
2023/01/14 10:05:09;;;;;;;11.60;2.90;;;6.40;99.90;;;;;;5048174;28;20103;-60
2023/01/14 10:07:34;;;;;;;11.00;2.92;;;6.40;99.90;;;;;;5047482;28;20047;-60
2023/01/14 10:10:03;;;;;;;8.43;2.88;;;6.40;99.90;;;;;;5047178;28;20045;-60
2023/01/14 10:12:36;;;;;;;9.55;2.80;;;6.50;99.90;;;;;;5049453;28;20059;-60
2023/01/14 10:15:28;;;;;;;6.93;2.72;;;6.50;99.90;;;;;;5030969;28;20045;-60
2023/01/14 10:18:01;;;;;;;9.18;2.70;;;6.60;99.90;;;;;;5047377;28;20047;-60
2023/01/14 10:20:51;;;;;;;10.00;3.08;;;6.60;99.90;;;;;;5046925;28;20037;-60
2023/01/14 10:23:29;;;;;;;6.85;2.85;;;6.60;99.90;;;;;;5047950;28;20170;-60
2023/01/14 10:25:56;;;;;;;8.68;3.08;;;6.60;99.90;;;;;;5046271;28;20107;-60
2023/01/14 10:28:28;;;;;;;12.88;3.25;;;6.60;99.90;;;;;;5047863;28;20045;-60
2023/01/14 10:30:57;;;;;;;9.70;3.33;;;6.70;99.90;;;;;;5047522;28;20041;-60
2023/01/14 10:33:23;;;;;;;9.82;3.28;;;6.60;99.90;;;;;;5047992;28;20037;-60
2023/01/14 10:36:05;;;;;;;6.50;2.50;;;6.70;99.90;;;;;;5048696;28;20045;-60
2023/01/14 10:38:31;;;;;;;9.38;3.10;;;6.70;99.90;;;;;;5047056;28;20049;-61
2023/01/14 10:41:06;;;;;;;8.15;3.00;;;6.80;99.90;;;;;;5048542;28;20465;-62
2023/01/14 10:43:34;;;;;;;;;;;6.80;99.90;;;;;;5047699;28;20494;-63
2023/01/14 10:45:59;;;;;;;8.52;2.33;;;6.90;99.90;;;;;;5047130;28;20017;-63
2023/01/14 10:48:28;;;;;;;7.70;2.20;;;6.90;99.90;;;;;;5047245;28;20080;-63
2023/01/14 10:51:14;;;;;;;5.70;1.90;;;6.90;99.90;;;;;;5048053;28;20060;-63
2023/01/14 10:53:42;;;;;;;;;;;7.00;99.90;;;;;;5046097;28;20765;-63
2023/01/14 10:56:08;;;;;;;8.75;2.40;;;7.00;99.90;;;;;;5047933;28;19920;-63
2023/01/14 10:58:43;;;;;;;7.72;2.50;;;7.10;99.90;;;;;;5047306;28;20832;-64
2023/01/14 11:01:11;;;;;;;6.55;2.15;;;7.00;99.90;;;;;;5047357;28;20418;-63
2023/01/14 11:03:46;;;;;;;8.57;2.08;;;7.10;99.90;;;;;;5047284;28;20048;-63
2023/01/14 11:06:15;;;;;;;5.82;2.13;;;7.10;99.90;;;;;;5048880;28;20055;-61
2023/01/14 11:08:50;;;;;;;4.68;1.70;;;7.10;99.90;;;;;;5051868;28;20071;-60
2023/01/14 11:11:22;;;;;;;5.90;1.58;;;7.10;99.90;;;;;;5052476;28;20055;-60
2023/01/14 11:13:50;;;;;;;5.70;1.90;;;7.10;99.90;;;;;;5050725;28;20044;-61
2023/01/14 11:16:25;;;;;;;6.35;2.25;;;7.10;99.90;;;;;;5052226;28;20382;-61
2023/01/14 11:19:00;;;;;;;5.95;2.10;;;7.10;99.90;;;;;;5050275;28;20041;-61
2023/01/14 11:21:35;;;;;;;5.80;2.47;;;7.10;99.90;;;;;;5052217;28;20044;-60
2023/01/14 11:24:20;;;;;;;11.43;3.78;;;7.20;99.90;;;;;;5050480;28;20057;-60
2023/01/14 11:26:46;;;;;;;7.15;2.70;;;7.20;99.90;;;;;;5051919;28;20524;-60
2023/01/14 11:29:22;;;;;;;7.22;2.38;;;7.20;99.90;;;;;;5050492;28;20098;-60
2023/01/14 11:31:54;;;;;;;4.90;1.60;;;7.20;99.90;;;;;;5049891;28;20052;-61
2023/01/14 11:34:40;;;;;;;5.13;1.83;;;7.20;99.90;;;;;;5050278;28;20051;-63
2023/01/14 11:37:08;;;;;;;5.65;1.80;;;7.20;99.90;;;;;;5049041;28;20047;-63
2023/01/14 11:39:34;;;;;;;6.38;2.22;;;7.20;99.90;;;;;;5050166;28;20778;-63
2023/01/14 11:42:02;;;;;;;8.45;2.65;;;7.30;99.90;;;;;;5032759;28;20060;-63
2023/01/14 11:44:29;;;;;;;7.35;2.33;;;7.20;99.90;;;;;;5050728;28;20045;-63
2023/01/14 11:47:13;;;;;;;6.35;2.17;;;7.30;99.90;;;;;;5049772;28;20481;-63
2023/01/14 11:49:38;;;;;;;6.28;1.92;;;7.30;99.90;;;;;;5049904;28;20155;-63
2023/01/14 11:52:15;;;;;;;8.43;2.90;;;7.30;99.90;;;;;;5051041;28;20616;-60
2023/01/14 11:54:42;;;;;;;5.53;2.20;;;7.30;99.90;;;;;;5051369;28;20045;-61
2023/01/14 11:57:18;;;;;;;7.10;1.98;;;7.30;99.90;;;;;;5051691;28;20044;-61
2023/01/14 11:59:45;;;;;;;5.40;2.00;;;7.30;99.90;;;;;;5051977;28;20111;-61
2023/01/14 12:02:14;;;;;;;4.70;1.90;;;7.30;99.90;;;;;;5050783;28;20098;-61
2023/01/14 12:04:58;;;;;;;4.82;2.00;;;7.40;99.90;;;;;;5049835;28;20040;-61
2023/01/14 12:07:27;;;;;;;5.05;1.95;;;7.30;99.90;;;;;;5051079;28;20056;-61
2023/01/14 12:10:06;;;;;;;4.57;1.52;;;7.40;99.90;;;;;;5048465;28;20128;-60
2023/01/14 12:18:49;;;;;;;5.47;1.88;;;7.50;99.90;;;;;;5062196;28;20387;-63
2023/01/14 12:21:22;;;;;;;5.10;1.80;;;7.50;99.90;;;;;;5050758;28;20577;-63
2023/01/14 12:23:57;;;;;;;5.28;1.60;;;7.50;99.90;;;;;;5047814;28;20138;-63
2023/01/14 12:26:29;;;;;;;4.75;1.60;;;7.60;99.90;;;;;;5051734;28;20049;-63
2023/01/14 12:29:00;;;;;;;4.90;1.63;;;7.60;99.90;;;;;;5050072;28;20405;-63
2023/01/14 12:31:40;;;;;;;3.95;1.60;;;7.70;99.90;;;;;;5050949;28;20040;-63
2023/01/14 12:34:11;;;;;;;5.63;1.58;;;7.70;99.90;;;;;;5050502;28;20401;-63
2023/01/14 12:36:48;;;;;;;4.28;1.92;;;7.70;99.90;;;;;;5051028;28;20574;-63
2023/01/14 12:45:41;;;;;;;5.72;1.85;;;7.80;99.90;;;;;;5049986;28;20195;-63
2023/01/14 12:48:08;;;;;;;5.32;1.80;;;7.90;99.90;;;;;;5050030;28;20057;-63
2023/01/14 12:50:36;;;;;;;8.10;1.90;;;7.90;99.90;;;;;;5049395;28;20080;-63
2023/01/14 12:53:03;;;;;;;4.35;1.45;;;7.90;99.90;;;;;;5049188;28;20052;-63
2023/01/14 12:55:39;;;;;;;6.32;2.80;;;8.00;99.90;;;;;;5049298;28;20056;-64
2023/01/14 12:58:14;;;;;;;4.97;2.00;;;8.10;99.90;;;;;;5047064;28;20045;-64
2023/01/14 13:00:39;;;;;;;6.00;1.70;;;8.10;99.90;;;;;;5050106;28;20433;-64
2023/01/14 13:03:18;;;;;;;4.55;1.58;;;8.10;99.90;;;;;;5049552;28;20040;-63
2023/01/14 13:05:44;;;;;;;3.78;1.45;;;8.20;99.90;;;;;;5049015;28;20073;-64
2023/01/14 13:08:26;;;;;;;4.07;1.33;;;8.30;99.90;;;;;;5049076;28;20056;-63
2023/01/14 13:11:21;;;;;;;3.85;1.30;;;8.30;99.90;;;;;;5048677;28;20093;-61
2023/01/14 13:13:52;;;;;;;3.30;1.40;;;8.40;99.90;;;;;;5047570;28;20126;-61
2023/01/14 13:16:32;;;;;;;3.80;1.20;;;8.40;99.90;;;;;;5049349;28;20167;-61
2023/01/14 13:19:00;;;;;;;2.45;1.13;;;8.50;99.90;;;;;;5048742;28;20128;-61
2023/01/14 13:21:54;;;;;;;4.22;1.30;;;8.50;99.90;;;;;;5048681;28;20095;-61
2023/01/14 13:24:37;;;;;;;4.85;1.50;;;8.50;99.90;;;;;;5047712;28;20057;-61
2023/01/14 13:27:22;;;;;;;3.25;1.10;;;8.60;99.90;;;;;;5048270;28;20120;-64
2023/01/14 13:29:48;;;;;;;;;;;8.70;99.90;;;;;;5047777;28;20080;-61
2023/01/14 13:32:49;;;;;;;4.43;1.40;;;8.70;99.90;;;;;;5050632;28;20006;-61
2023/01/14 13:35:22;;;;;;;3.47;1.40;;;8.70;99.90;;;;;;5045612;28;20049;-62
2023/01/14 13:37:51;;;;;;;4.78;1.40;;;8.80;99.90;;;;;;5049730;28;20079;-62
2023/01/14 13:40:23;;;;;;;4.00;1.70;;;8.90;99.90;;;;;;5033056;28;20132;-62
2023/01/14 13:43:19;;;;;;;3.70;1.35;;;8.90;99.90;;;;;;5048910;28;20049;-61
2023/01/14 13:45:51;;;;;;;3.72;1.63;;;9.00;99.90;;;;;;5048191;28;20413;-61
2023/01/14 13:48:23;;;;;;;6.10;1.98;;;9.10;99.90;;;;;;5031834;28;20053;-61